Taminick, Australia

9:49 AM AEST on May 26, 2017 (GMT +1000)
Wangaratta South | | Change Station

Elev 540 ft 36.41 °S, 146.26 °E | Updated 1 second ago

Mostly Cloudy
Mostly Cloudy
54.0 °F
Feels Like 54.0 °F
N
0.0
Wind Variable Wind from NE
Gusts 0.0 mph

Today
High -- | Low -- °F
--% Chance of Precip.
Yesterday
High -- | Low -- °F
Precip. -- in
Pressure 30.21 in
Visibility 6.2 miles
Clouds Scattered Clouds 400 ft
Mostly Cloudy 2000 ft
Overcast 4000 ft
Dew Point 54 °F
Humidity 99%
Rainfall 0.05 in
Snow Depth Not available.
7:13 AM 5:10 PM
New Moon, 0% visible
SPECI YWGT 252330Z AUTO 00000KT 9999 // SCT004 BKN020 OVC040 12/12 Q1023
Pressure 30.21 in
Visibility 6.2 miles
Clouds Scattered Clouds 400 ft
Mostly Cloudy 2000 ft
Overcast 4000 ft
Dew Point 54 °F
Humidity 99%
Rainfall 0.05 in
Snow Depth Not available.
7:13 AM 5:10 PM
New Moon, 0% visible
SPECI YWGT 252330Z AUTO 00000KT 9999 // SCT004 BKN020 OVC040 12/12 Q1023

Get Severe Weather Alerts

Thanks for signing up!

Be on the lookout for a verification email in your inbox.

You'll start receiving the daily forecast at 6 AM.

×

10-Day Weather Forecast

×

Almanac

Astronomy

May. 26, 2017 Rise Set
Actual Time
Civil Twilight
Nautical Twilight
Astronomical Twilight
Moon
Length of Visible Light
Length of Day
Tomorrow will be .
, % of the Moon is Illuminated

Today's Extremes

Country Highs Country Lows

Community

WunderPhotos

Category 6

Welcome to Category 6. This is the collective home for Weather Underground's featured writeups by Dr. Jeff Masters (right), Bob Henson (left), Chris Burt, and other regular contributors.

Nearby

Air Quality

  Air Quality AQ Index Pollutant
Not available.

Snow Depth

Station Depth Elevation

Earthquake Activity

City Distance Mag. Time & Date
Minimum magnitude displayed is 2.5.

Coastal Water Temperatures

Place Temperature

Stations

Nearby Weather Stations

Station Location Temp. Windchill Dew Point Humidity Wind Precip. Elev Updated Type